JULY 28, 2014


METAR SMJP 281200Z 11005KT 9999 FEW018 26/25 Q1017 NOSIG=

METAR SMZO 281200Z 14006KT 9999 FEW010 27/24 Q1017 NOSIG=

METAR SMNI 281200Z 10006KT 9999 FEW015 SCT030 27/24 Q1018=